Capitol Logistics 466


KPVD
Theodore Francis Green State Airport
Providence, Rhode Island, US
KRFD
Chicago/Rockford International Airport
Rockford, Illinois, US

Route Details

Aircraft Information
Primary: Boeing 737-800BCF
Backup: Not Available
Route Data
Distance: 790nm
Sched. Duration: 1h 44m
Avg. Duration: 2h 27m (+83m)
Times Flown: 9
Recm'd Route: PUT CTR CAM Q822 FNT J547 OBK V24 KRENA V100 RFD
Planned Altitude: 38,000ft
Origin Wx: KPVD 210951Z 34010KT 10SM CLR M08/M17 A3043 RMK AO2 SLP304 T10781172
Dest. Wx: KRFD 210954Z 21004KT 10SM CLR M13/M17 A3060 RMK AO2 SLP380 T11281172
Notes:

Financial History
Total Freight: 419,271lbs
Average Load: 46,586lbs/flt
Fuel Used: 154,433lbs
Avg. Fuel Used: 17,159lbs/flt
Fuel Expense: $146,711
Avg. Fuel Expense: $16,301
Avg. Fuel Cost: $0.95/lbs
Total Gross Income: $542,219
Pilot Pay: $1,261
Total Expenses: $59,028
Total Revenue: $332,412
Average Revenue: $60,246.52